Time;durP1;ratioP1;P1;durP2;ratioP2;P2;SDS_P1;SDS_P2;PMS_P1;PMS_P2;Temp;Humidity;BMP_temperature;BMP_pressure;BME280_temperature;BME280_humidity;BME280_pressure;Samples;Min_cycle;Max_cycle;Signal;HPM_P1;HPM_P2
2023/03/31 00:00:42;;;;;;;100.32;6.38;;;;;;;;;;5019080;28;20037;-58
2023/03/31 00:03:09;;;;;;;77.80;5.72;;;;;;;;;;5019946;28;20036;-57
2023/03/31 00:05:36;;;;;;;88.00;5.95;;;;;;;;;;5018568;28;20033;-58
2023/03/31 00:08:01;;;;;;;94.55;6.03;;;;;;;;;;5019573;28;20168;-58
2023/03/31 00:10:27;;;;;;;66.68;5.22;;;;;;;;;;5019406;28;20394;-57
2023/03/31 00:12:53;;;;;;;81.63;5.38;;;;;;;;;;5020023;28;20021;-59
2023/03/31 00:15:19;;;;;;;73.25;5.20;;;;;;;;;;5018090;28;20029;-58
2023/03/31 00:17:46;;;;;;;60.60;4.57;;;;;;;;;;5020259;28;20064;-58
2023/03/31 00:20:11;;;;;;;98.70;6.25;;;;;;;;;;5018816;28;20622;-58
2023/03/31 00:22:37;;;;;;;89.60;5.95;;;;;;;;;;5018610;28;20121;-59
2023/03/31 00:25:03;;;;;;;89.97;5.80;;;;;;;;;;5018614;28;20106;-58
2023/03/31 00:27:28;;;;;;;95.03;6.03;;;;;;;;;;5019450;28;20744;-59
2023/03/31 00:29:54;;;;;;;69.25;5.07;;;;;;;;;;5019660;28;20052;-58
2023/03/31 00:32:19;;;;;;;87.45;6.00;;;;;;;;;;5019040;28;20721;-58
2023/03/31 00:34:45;;;;;;;82.43;5.50;;;;;;;;;;5018624;28;20104;-58
2023/03/31 00:37:14;;;;;;;87.82;5.95;;;;;;;;;;5019206;28;20072;-60
2023/03/31 00:39:40;;;;;;;97.35;6.55;;;;;;;;;;5019604;28;20164;-57
2023/03/31 00:42:07;;;;;;;85.97;5.78;;;;;;;;;;5019195;28;20630;-57
2023/03/31 00:44:34;;;;;;;98.47;6.68;;;;;;;;;;5017567;28;20013;-57
2023/03/31 00:47:06;;;;;;;82.65;5.72;;;;;;;;;;5018812;28;20038;-59
2023/03/31 00:49:32;;;;;;;78.85;5.50;;;;;;;;;;5019475;28;20017;-58
2023/03/31 00:52:05;;;;;;;113.93;7.13;;;;;;;;;;5018878;28;20380;-59
2023/03/31 00:54:32;;;;;;;90.03;6.35;;;;;;;;;;5018888;28;20064;-58
2023/03/31 00:57:01;;;;;;;96.20;6.13;;;;;;;;;;5018288;28;20029;-58
2023/03/31 00:59:29;;;;;;;91.47;6.22;;;;;;;;;;5019526;28;20483;-56
2023/03/31 01:01:58;;;;;;;73.68;5.75;;;;;;;;;;5019082;28;20029;-59
2023/03/31 01:04:23;;;;;;;80.20;5.63;;;;;;;;;;5018092;28;20547;-58
2023/03/31 01:06:56;;;;;;;73.80;5.65;;;;;;;;;;5019477;28;20036;-59
2023/03/31 01:09:23;;;;;;;83.25;5.85;;;;;;;;;;5019277;28;20068;-57
2023/03/31 01:11:49;;;;;;;74.22;5.22;;;;;;;;;;5019114;28;20049;-58
2023/03/31 01:14:14;;;;;;;87.68;6.25;;;;;;;;;;5017813;28;20474;-58
2023/03/31 01:16:40;;;;;;;77.20;5.60;;;;;;;;;;5018783;28;20057;-58
2023/03/31 01:19:13;;;;;;;100.18;6.45;;;;;;;;;;5019201;28;20053;-59
2023/03/31 01:21:52;;;;;;;104.82;6.75;;;;;;;;;;5018442;28;20037;-59
2023/03/31 01:24:17;;;;;;;90.05;6.18;;;;;;;;;;5017673;28;20036;-58
2023/03/31 01:26:45;;;;;;;89.50;6.20;;;;;;;;;;5018007;28;20467;-58
2023/03/31 01:29:29;;;;;;;77.15;5.68;;;;;;;;;;5018073;28;20791;-59
2023/03/31 01:32:13;;;;;;;81.00;6.03;;;;;;;;;;5018249;28;20079;-62
2023/03/31 01:34:38;;;;;;;83.75;6.35;;;;;;;;;;5015726;28;20032;-57
2023/03/31 01:37:06;;;;;;;92.47;6.77;;;;;;;;;;5017861;28;20247;-59
2023/03/31 01:39:44;;;;;;;83.07;5.88;;;;;;;;;;5018644;28;20260;-58
2023/03/31 01:42:09;;;;;;;105.80;6.90;;;;;;;;;;5017855;28;20045;-58
2023/03/31 01:44:34;;;;;;;81.53;6.05;;;;;;;;;;5017275;28;20025;-59
2023/03/31 01:47:05;;;;;;;83.67;5.90;;;;;;;;;;5018018;28;20353;-59
2023/03/31 01:49:34;;;;;;;90.55;6.32;;;;;;;;;;5018767;28;20279;-58
2023/03/31 01:52:03;;;;;;;87.40;6.22;;;;;;;;;;5017917;28;20045;-57
2023/03/31 01:54:40;;;;;;;104.88;6.97;;;;;;;;;;5017020;28;20018;-59
2023/03/31 01:57:11;;;;;;;95.72;5.88;;;;;;;;;;5018230;28;20136;-57
2023/03/31 01:59:40;;;;;;;100.40;6.72;;;;;;;;;;5019500;28;20087;-58
2023/03/31 02:02:08;;;;;;;78.95;5.93;;;;;;;;;;5018463;28;20553;-58
2023/03/31 02:04:46;;;;;;;69.90;5.32;;;;;;;;;;5017199;28;20248;-57
2023/03/31 02:07:13;;;;;;;92.20;6.20;;;;;;;;;;5017672;28;20034;-58
2023/03/31 02:09:42;;;;;;;89.43;6.07;;;;;;;;;;5017736;28;20369;-57
2023/03/31 02:12:09;;;;;;;94.78;6.05;;;;;;;;;;5017246;28;20476;-59
2023/03/31 02:14:36;;;;;;;83.90;6.07;;;;;;;;;;5015710;28;20017;-58
2023/03/31 02:17:02;;;;;;;86.63;6.18;;;;;;;;;;5016958;28;20056;-58
2023/03/31 02:19:32;;;;;;;95.45;6.07;;;;;;;;;;5018109;28;20578;-56
2023/03/31 02:21:58;;;;;;;100.55;6.72;;;;;;;;;;5009258;28;20033;-59
2023/03/31 02:24:25;;;;;;;97.63;6.20;;;;;;;;;;5017090;28;20037;-59
2023/03/31 02:27:02;;;;;;;61.90;4.95;;;;;;;;;;5017693;28;20215;-59
2023/03/31 02:29:27;;;;;;;79.22;5.80;;;;;;;;;;5017750;28;20033;-57
2023/03/31 02:32:16;;;;;;;66.65;5.45;;;;;;;;;;5016837;28;20087;-57
2023/03/31 02:34:41;;;;;;;88.32;6.40;;;;;;;;;;5010344;28;20042;-57
2023/03/31 02:37:07;;;;;;;84.38;6.07;;;;;;;;;;5017281;28;20048;-58
2023/03/31 02:39:33;;;;;;;110.18;7.10;;;;;;;;;;5017316;28;20433;-58
2023/03/31 02:42:01;;;;;;;81.38;6.50;;;;;;;;;;5016869;28;20037;-58
2023/03/31 02:44:26;;;;;;;109.57;7.80;;;;;;;;;;5016354;28;20028;-58
2023/03/31 02:46:52;;;;;;;70.68;6.07;;;;;;;;;;5016908;28;20034;-58
2023/03/31 02:49:18;;;;;;;78.47;5.70;;;;;;;;;;5017793;28;20036;-58
2023/03/31 02:51:46;;;;;;;95.57;7.03;;;;;;;;;;5017304;28;20065;-59
2023/03/31 02:54:30;;;;;;;121.65;8.13;;;;;;;;;;5017392;28;20025;-58
2023/03/31 02:56:59;;;;;;;93.38;6.63;;;;;;;;;;5017339;28;20045;-59
2023/03/31 02:59:27;;;;;;;79.93;5.88;;;;;;;;;;5017796;28;20033;-58
2023/03/31 03:02:01;;;;;;;92.18;6.38;;;;;;;;;;5016836;28;20045;-59
2023/03/31 03:04:32;;;;;;;93.50;6.10;;;;;;;;;;5016868;28;20029;-59
2023/03/31 03:07:17;;;;;;;99.70;6.40;;;;;;;;;;5016522;28;20453;-58
2023/03/31 03:10:02;;;;;;;89.53;5.68;;;;;;;;;;5019904;28;20841;-57
2023/03/31 03:12:33;;;;;;;78.47;5.38;;;;;;;;;;5019737;28;20026;-56
2023/03/31 03:14:59;;;;;;;111.53;6.78;;;;;;;;;;5019627;28;20929;-58
2023/03/31 03:17:42;;;;;;;103.53;6.40;;;;;;;;;;5020094;28;20083;-57
2023/03/31 03:20:08;;;;;;;95.80;6.35;;;;;;;;;;5020320;28;20029;-58
2023/03/31 03:22:35;;;;;;;82.47;5.72;;;;;;;;;;5020435;28;20118;-57
2023/03/31 03:25:00;;;;;;;82.80;5.50;;;;;;;;;;5019580;28;20091;-57
2023/03/31 03:27:25;;;;;;;79.22;5.40;;;;;;;;;;5019262;28;20769;-57
2023/03/31 03:29:51;;;;;;;82.68;5.93;;;;;;;;;;5020458;28;20242;-57
2023/03/31 03:32:16;;;;;;;84.90;5.57;;;;;;;;;;5019996;28;20045;-58
2023/03/31 03:34:41;;;;;;;94.60;6.50;;;;;;;;;;5019301;28;20040;-57
2023/03/31 03:37:07;;;;;;;59.93;4.47;;;;;;;;;;5019605;28;20996;-57
2023/03/31 03:39:32;;;;;;;112.95;6.72;;;;;;;;;;5020594;28;20611;-57
2023/03/31 03:41:57;;;;;;;95.65;6.22;;;;;;;;;;5019495;28;20477;-58
2023/03/31 03:44:22;;;;;;;84.07;5.88;;;;;;;;;;5019442;28;20009;-59
2023/03/31 03:46:48;;;;;;;94.28;5.97;;;;;;;;;;5019415;28;20025;-58
2023/03/31 03:49:13;;;;;;;88.05;5.75;;;;;;;;;;5020043;28;20032;-58
2023/03/31 03:51:38;;;;;;;100.93;6.30;;;;;;;;;;5019226;28;20052;-57
2023/03/31 03:54:04;;;;;;;149.63;8.85;;;;;;;;;;5019049;28;20025;-57
2023/03/31 03:56:30;;;;;;;92.97;6.05;;;;;;;;;;5019055;28;20914;-57
2023/03/31 03:58:55;;;;;;;85.10;5.55;;;;;;;;;;5019926;28;20064;-59
2023/03/31 04:01:20;;;;;;;92.35;6.05;;;;;;;;;;5019995;28;20033;-58
2023/03/31 04:03:45;;;;;;;83.72;5.65;;;;;;;;;;5012013;28;20540;-58
2023/03/31 04:06:11;;;;;;;91.50;6.13;;;;;;;;;;5018554;28;20033;-57
2023/03/31 04:08:36;;;;;;;89.97;5.78;;;;;;;;;;5019884;28;20462;-58
2023/03/31 04:11:02;;;;;;;115.90;7.38;;;;;;;;;;5019747;28;20040;-57
2023/03/31 04:13:27;;;;;;;125.90;7.43;;;;;;;;;;5019037;28;20037;-57
2023/03/31 04:15:52;;;;;;;70.80;4.68;;;;;;;;;;5018887;28;20064;-56
2023/03/31 04:18:21;;;;;;;104.80;6.13;;;;;;;;;;5018908;28;20092;-58
2023/03/31 04:21:05;;;;;;;87.55;5.45;;;;;;;;;;5019372;28;20120;-57
2023/03/31 04:23:30;;;;;;;130.20;7.63;;;;;;;;;;5018934;28;20461;-57
2023/03/31 04:25:56;;;;;;;100.20;6.03;;;;;;;;;;5013685;28;20499;-58
2023/03/31 04:28:22;;;;;;;94.88;6.57;;;;;;;;;;5019482;28;20049;-57
2023/03/31 04:30:47;;;;;;;80.03;5.70;;;;;;;;;;5018812;28;20053;-58
2023/03/31 04:33:14;;;;;;;94.97;6.15;;;;;;;;;;5018534;28;20048;-58
2023/03/31 04:35:49;;;;;;;115.40;6.90;;;;;;;;;;5017565;28;20076;-57
2023/03/31 04:38:18;;;;;;;79.68;5.70;;;;;;;;;;5019456;28;20029;-58
2023/03/31 04:40:50;;;;;;;89.05;6.20;;;;;;;;;;5018692;28;20148;-58
2023/03/31 04:43:17;;;;;;;106.03;7.57;;;;;;;;;;5018670;28;20021;-58
2023/03/31 04:45:42;;;;;;;86.65;6.57;;;;;;;;;;5017327;28;20037;-61
2023/03/31 04:48:08;;;;;;;95.97;7.47;;;;;;;;;;5019082;28;20036;-58
2023/03/31 04:50:33;;;;;;;70.20;5.97;;;;;;;;;;5018597;28;20124;-57
2023/03/31 04:52:58;;;;;;;107.85;7.32;;;;;;;;;;5018548;28;20026;-57
2023/03/31 04:55:24;;;;;;;111.60;7.28;;;;;;;;;;5016906;28;20459;-58
2023/03/31 04:57:50;;;;;;;74.78;6.10;;;;;;;;;;5018803;28;20049;-58
2023/03/31 05:00:15;;;;;;;95.78;7.30;;;;;;;;;;5017947;28;20041;-58
2023/03/31 05:02:41;;;;;;;104.53;7.22;;;;;;;;;;5019316;28;20014;-58
2023/03/31 05:05:06;;;;;;;121.68;8.52;;;;;;;;;;5017979;28;20025;-57
2023/03/31 05:07:31;;;;;;;100.53;7.50;;;;;;;;;;5019564;28;20018;-56
2023/03/31 05:09:57;;;;;;;81.33;6.57;;;;;;;;;;5019398;28;20025;-57
2023/03/31 05:12:22;;;;;;;99.50;7.65;;;;;;;;;;5018529;28;20857;-57
2023/03/31 05:14:47;;;;;;;106.97;7.93;;;;;;;;;;5018752;28;20443;-58
2023/03/31 05:17:12;;;;;;;96.00;8.10;;;;;;;;;;5017622;28;20079;-57
2023/03/31 05:19:37;;;;;;;95.47;7.55;;;;;;;;;;5019138;28;20520;-58
2023/03/31 05:22:03;;;;;;;104.20;8.30;;;;;;;;;;5017823;28;20064;-58
2023/03/31 05:24:28;;;;;;;94.20;9.03;;;;;;;;;;5017290;28;20256;-56
2023/03/31 05:26:54;;;;;;;98.28;10.43;;;;;;;;;;5017535;28;20260;-57
2023/03/31 05:29:20;;;;;;;86.70;9.43;;;;;;;;;;5018563;28;20025;-58
2023/03/31 05:31:45;;;;;;;113.45;11.88;;;;;;;;;;5017145;28;20376;-59
2023/03/31 05:34:11;;;;;;;150.82;12.82;;;;;;;;;;5016152;28;20539;-58
2023/03/31 05:36:36;;;;;;;95.72;10.55;;;;;;;;;;5017895;28;20049;-59
2023/03/31 05:39:02;;;;;;;86.85;10.40;;;;;;;;;;5018851;28;20300;-59
2023/03/31 05:41:27;;;;;;;119.20;10.23;;;;;;;;;;5017853;28;20048;-59
2023/03/31 05:43:53;;;;;;;106.93;9.37;;;;;;;;;;5017947;28;20021;-58
2023/03/31 05:46:18;;;;;;;94.97;8.68;;;;;;;;;;5018477;28;20276;-59
2023/03/31 05:48:43;;;;;;;91.85;8.20;;;;;;;;;;5018408;28;20022;-60
2023/03/31 05:51:09;;;;;;;119.22;9.00;;;;;;;;;;5018288;28;20033;-60
2023/03/31 05:53:34;;;;;;;120.10;8.65;;;;;;;;;;5017803;28;20422;-59
2023/03/31 05:56:00;;;;;;;94.72;7.20;;;;;;;;;;5016395;28;20037;-59
2023/03/31 05:58:26;;;;;;;87.40;6.95;;;;;;;;;;5017263;28;20434;-59
2023/03/31 06:01:08;;;;;;;105.80;7.72;;;;;;;;;;5017218;28;20033;-60
2023/03/31 06:03:34;;;;;;;102.70;7.43;;;;;;;;;;5010593;28;20028;-60
2023/03/31 06:06:00;;;;;;;116.07;8.55;;;;;;;;;;5017050;28;20834;-59
2023/03/31 06:08:26;;;;;;;93.18;7.55;;;;;;;;;;5018006;28;20038;-60
2023/03/31 06:10:51;;;;;;;82.53;6.88;;;;;;;;;;5017259;28;20552;-60
2023/03/31 06:13:17;;;;;;;89.10;7.18;;;;;;;;;;5017706;28;20237;-60
2023/03/31 06:15:42;;;;;;;75.13;6.93;;;;;;;;;;5015940;28;20665;-58
2023/03/31 06:18:09;;;;;;;91.20;7.37;;;;;;;;;;5017624;28;20704;-60
2023/03/31 06:20:35;;;;;;;87.82;6.90;;;;;;;;;;5016872;28;20252;-59
2023/03/31 06:23:00;;;;;;;81.07;6.80;;;;;;;;;;5017661;28;20021;-58
2023/03/31 06:25:25;;;;;;;101.20;7.33;;;;;;;;;;5014642;28;20034;-59
2023/03/31 06:27:50;;;;;;;93.40;7.00;;;;;;;;;;5015960;28;20314;-59
2023/03/31 06:30:16;;;;;;;84.00;6.90;;;;;;;;;;5016679;28;20354;-60
2023/03/31 06:32:41;;;;;;;79.50;6.68;;;;;;;;;;5017435;28;20537;-59
2023/03/31 06:35:06;;;;;;;74.82;6.55;;;;;;;;;;5015444;28;20453;-58
2023/03/31 06:37:31;;;;;;;100.00;7.90;;;;;;;;;;5017153;28;20067;-59
2023/03/31 06:39:57;;;;;;;97.95;7.50;;;;;;;;;;5017324;28;20025;-60
2023/03/31 06:42:22;;;;;;;63.67;6.13;;;;;;;;;;5017437;28;20148;-59
2023/03/31 06:44:47;;;;;;;82.93;6.67;;;;;;;;;;5019144;28;20037;-59
2023/03/31 06:47:12;;;;;;;80.82;7.00;;;;;;;;;;5020791;28;20359;-60
2023/03/31 06:49:38;;;;;;;84.27;7.13;;;;;;;;;;5021580;28;20029;-58
2023/03/31 06:52:03;;;;;;;100.13;7.20;;;;;;;;;;5020546;28;20284;-59
2023/03/31 06:54:28;;;;;;;84.50;6.45;;;;;;;;;;5020471;28;20696;-60
2023/03/31 06:56:53;;;;;;;84.88;6.68;;;;;;;;;;5020982;28;20103;-58
2023/03/31 06:59:19;;;;;;;87.57;6.43;;;;;;;;;;5021129;28;20885;-59
2023/03/31 07:01:44;;;;;;;65.50;5.80;;;;;;;;;;5020971;28;20236;-59
2023/03/31 07:04:10;;;;;;;131.32;8.50;;;;;;;;;;5019578;28;20410;-59
2023/03/31 07:06:35;;;;;;;111.82;8.05;;;;;;;;;;5020292;28;20083;-60
2023/03/31 07:09:01;;;;;;;81.10;6.10;;;;;;;;;;5020866;28;20018;-58
2023/03/31 07:11:26;;;;;;;89.05;6.72;;;;;;;;;;5020178;28;20041;-58
2023/03/31 07:13:51;;;;;;;101.57;7.70;;;;;;;;;;5020149;28;20156;-59
2023/03/31 07:16:16;;;;;;;97.35;7.68;;;;;;;;;;5019922;28;20265;-59
2023/03/31 07:18:41;;;;;;;92.60;7.57;;;;;;;;;;5020519;28;20047;-57
2023/03/31 07:21:07;;;;;;;97.83;8.60;;;;;;;;;;5020358;28;20363;-57
2023/03/31 07:23:32;;;;;;;119.47;9.13;;;;;;;;;;5017980;28;20302;-58
2023/03/31 07:26:01;;;;;;;109.28;9.75;;;;;;;;;;5018047;28;20033;-56
2023/03/31 07:28:26;;;;;;;93.15;10.55;;;;;;;;;;5019173;28;20501;-58
2023/03/31 07:30:52;;;;;;;110.43;11.93;;;;;;;;;;5020558;28;20076;-59
2023/03/31 07:33:17;;;;;;;86.20;10.40;;;;;;;;;;5021258;28;20106;-58
2023/03/31 07:35:42;;;;;;;80.07;11.02;;;;;;;;;;5017968;28;20415;-59
2023/03/31 07:38:08;;;;;;;114.40;10.02;;;;;;;;;;5020673;28;20029;-59
2023/03/31 07:40:33;;;;;;;93.53;9.43;;;;;;;;;;5020497;28;20029;-58
2023/03/31 07:42:59;;;;;;;111.77;9.93;;;;;;;;;;5020556;28;20088;-57
2023/03/31 07:45:25;;;;;;;106.30;9.85;;;;;;;;;;5018909;28;20236;-57
2023/03/31 07:47:50;;;;;;;100.88;9.82;;;;;;;;;;5019181;28;20029;-58
2023/03/31 07:50:16;;;;;;;82.72;7.88;;;;;;;;;;5019501;28;20159;-58
2023/03/31 07:52:41;;;;;;;90.47;9.88;;;;;;;;;;5020428;28;20036;-58
2023/03/31 07:55:07;;;;;;;87.25;9.40;;;;;;;;;;5018187;28;20044;-58
2023/03/31 07:57:32;;;;;;;127.15;11.13;;;;;;;;;;5020171;28;20017;-58
2023/03/31 07:59:58;;;;;;;87.93;8.75;;;;;;;;;;5020244;28;20400;-58
2023/03/31 08:02:23;;;;;;;87.97;8.80;;;;;;;;;;5020151;28;20094;-58
2023/03/31 08:04:48;;;;;;;100.47;9.65;;;;;;;;;;5018940;28;20284;-58
2023/03/31 08:07:15;;;;;;;97.63;9.98;;;;;;;;;;5020020;28;20036;-58
2023/03/31 08:09:42;;;;;;;94.90;7.68;;;;;;;;;;5020139;28;20022;-58
2023/03/31 08:12:07;;;;;;;90.55;6.78;;;;;;;;;;5019534;28;20042;-56
2023/03/31 08:14:33;;;;;;;90.25;9.18;;;;;;;;;;5018868;28;20036;-57
2023/03/31 08:16:59;;;;;;;110.70;8.20;;;;;;;;;;5019363;28;20576;-58
2023/03/31 08:19:24;;;;;;;85.18;9.48;;;;;;;;;;5020548;28;20032;-58
2023/03/31 08:21:51;;;;;;;93.72;9.50;;;;;;;;;;5019721;28;20684;-57
2023/03/31 08:24:16;;;;;;;108.45;8.63;;;;;;;;;;5018945;28;20121;-58
2023/03/31 08:26:42;;;;;;;75.65;7.88;;;;;;;;;;5019560;28;20096;-58
2023/03/31 08:29:07;;;;;;;82.85;7.47;;;;;;;;;;5019004;28;20152;-58
2023/03/31 08:31:32;;;;;;;97.63;10.13;;;;;;;;;;5019448;28;20041;-57
2023/03/31 08:33:58;;;;;;;129.07;11.10;;;;;;;;;;5019634;28;20061;-57
2023/03/31 08:36:24;;;;;;;102.28;8.40;;;;;;;;;;5018798;28;20260;-58
2023/03/31 08:38:49;;;;;;;80.88;7.88;;;;;;;;;;5020335;28;20663;-58
2023/03/31 08:41:40;;;;;;;67.35;6.13;;;;;;;;;;5018979;28;20034;-59
2023/03/31 08:44:26;;;;;;;126.32;7.45;;;;;;;;;;5019382;28;20033;-58
2023/03/31 08:46:52;;;;;;;102.65;10.57;;;;;;;;;;4994504;28;20038;-58
2023/03/31 08:49:19;;;;;;;83.90;8.13;;;;;;;;;;5020037;28;20041;-58
2023/03/31 08:51:50;;;;;;;99.50;7.93;;;;;;;;;;5018616;28;20045;-58
2023/03/31 08:54:18;;;;;;;103.68;8.98;;;;;;;;;;5018694;28;20112;-57
2023/03/31 08:56:46;;;;;;;99.13;9.23;;;;;;;;;;5019020;28;20033;-56
2023/03/31 08:59:31;;;;;;;93.68;9.07;;;;;;;;;;5020143;28;20022;-58
2023/03/31 09:02:08;;;;;;;109.43;7.00;;;;;;;;;;5018026;28;20120;-58
2023/03/31 09:04:52;;;;;;;90.15;6.28;;;;;;;;;;5018548;28;20068;-59
2023/03/31 09:07:22;;;;;;;83.68;6.75;;;;;;;;;;5017921;28;20465;-55
2023/03/31 09:09:57;;;;;;;78.38;7.63;;;;;;;;;;5020010;28;20017;-58
2023/03/31 09:12:22;;;;;;;90.00;9.15;;;;;;;;;;5018774;28;20140;-56
2023/03/31 09:14:47;;;;;;;80.80;8.30;;;;;;;;;;5018861;28;20378;-55
2023/03/31 09:17:45;;;;;;;95.53;8.93;;;;;;;;;;5018439;28;20267;-57
2023/03/31 09:20:21;;;;;;;126.75;8.70;;;;;;;;;;5006638;28;20283;-57
2023/03/31 09:22:49;;;;;;;76.20;7.82;;;;;;;;;;5019459;28;20069;-57
2023/03/31 09:25:24;;;;;;;83.63;8.15;;;;;;;;;;5009537;28;20035;-60
2023/03/31 09:27:51;;;;;;;64.75;5.85;;;;;;;;;;5019793;28;20036;-58
2023/03/31 09:30:28;;;;;;;78.80;7.13;;;;;;;;;;5018811;28;20036;-57
2023/03/31 09:33:15;;;;;;;82.78;8.02;;;;;;;;;;5018814;28;20010;-58
2023/03/31 09:35:40;;;;;;;98.35;6.68;;;;;;;;;;5016918;28;20063;-58
2023/03/31 09:38:08;;;;;;;69.90;6.60;;;;;;;;;;5019157;28;20112;-58
2023/03/31 09:40:33;;;;;;;75.53;6.65;;;;;;;;;;5018671;28;20280;-58
2023/03/31 09:43:00;;;;;;;87.05;9.00;;;;;;;;;;5018758;28;20097;-58
2023/03/31 09:45:26;;;;;;;82.20;5.20;;;;;;;;;;5017176;28;20045;-57
2023/03/31 09:47:56;;;;;;;93.13;8.27;;;;;;;;;;5018889;28;20014;-57
2023/03/31 09:50:22;;;;;;;73.40;7.47;;;;;;;;;;5018370;28;20032;-57
2023/03/31 09:52:52;;;;;;;73.65;7.32;;;;;;;;;;5018739;28;20029;-58
2023/03/31 09:55:26;;;;;;;85.00;8.15;;;;;;;;;;5016543;28;20032;-57
2023/03/31 09:57:52;;;;;;;78.80;7.78;;;;;;;;;;5018632;28;20099;-57
2023/03/31 10:00:20;;;;;;;86.22;6.53;;;;;;;;;;5017964;28;20116;-58
2023/03/31 10:02:52;;;;;;;66.30;5.13;;;;;;;;;;5018756;28;20025;-59
2023/03/31 10:05:23;;;;;;;84.45;5.97;;;;;;;;;;5015331;28;20037;-58
2023/03/31 10:07:48;;;;;;;74.40;5.50;;;;;;;;;;5018420;28;20025;-57
2023/03/31 10:10:27;;;;;;;60.80;5.57;;;;;;;;;;5018122;28;20036;-58
2023/03/31 10:12:53;;;;;;;64.72;5.47;;;;;;;;;;5018817;28;20252;-58
2023/03/31 10:15:20;;;;;;;72.82;5.75;;;;;;;;;;5017219;28;20021;-59
2023/03/31 10:17:46;;;;;;;73.57;6.13;;;;;;;;;;5018327;28;20021;-59
2023/03/31 10:20:19;;;;;;;79.22;6.25;;;;;;;;;;5018141;28;20033;-60
2023/03/31 10:22:44;;;;;;;86.28;6.72;;;;;;;;;;5017476;28;20025;-59
2023/03/31 10:25:15;;;;;;;65.25;5.57;;;;;;;;;;5016691;28;20022;-58
2023/03/31 10:27:41;;;;;;;79.82;6.97;;;;;;;;;;5017647;28;20569;-59
2023/03/31 10:30:09;;;;;;;69.93;6.18;;;;;;;;;;5018297;28;20033;-59
2023/03/31 10:32:38;;;;;;;78.97;5.65;;;;;;;;;;5016284;28;20040;-59
2023/03/31 10:35:23;;;;;;;110.78;8.05;;;;;;;;;;5016195;28;20071;-58
2023/03/31 10:37:49;;;;;;;71.63;6.07;;;;;;;;;;5018029;28;20028;-58
2023/03/31 10:40:19;;;;;;;84.90;6.05;;;;;;;;;;5017466;28;20099;-59
2023/03/31 10:42:46;;;;;;;79.05;5.95;;;;;;;;;;5017993;28;20124;-58
2023/03/31 10:45:24;;;;;;;100.95;6.80;;;;;;;;;;5016115;28;20079;-59
2023/03/31 10:47:52;;;;;;;79.45;6.03;;;;;;;;;;5018026;28;20394;-59
2023/03/31 10:50:17;;;;;;;81.95;6.03;;;;;;;;;;5017442;28;20025;-58
2023/03/31 10:52:44;;;;;;;70.93;5.40;;;;;;;;;;5018247;28;20013;-58
2023/03/31 10:55:16;;;;;;;76.38;5.75;;;;;;;;;;5016857;28;20303;-59
2023/03/31 10:57:45;;;;;;;79.70;5.22;;;;;;;;;;5017513;28;20631;-59
2023/03/31 11:00:12;;;;;;;78.13;5.63;;;;;;;;;;5017563;28;20487;-58
2023/03/31 11:02:45;;;;;;;81.28;6.55;;;;;;;;;;5017890;28;20037;-59
2023/03/31 11:05:29;;;;;;;85.72;6.85;;;;;;;;;;5016157;28;20035;-58
2023/03/31 11:08:01;;;;;;;79.95;5.88;;;;;;;;;;5017781;28;20088;-58
2023/03/31 11:10:30;;;;;;;65.47;4.80;;;;;;;;;;5017417;28;20029;-59
2023/03/31 11:13:15;;;;;;;79.68;5.55;;;;;;;;;;5018042;28;20415;-59
2023/03/31 11:15:52;;;;;;;69.40;5.30;;;;;;;;;;5016169;28;20065;-59
2023/03/31 11:18:36;;;;;;;66.00;4.75;;;;;;;;;;5017822;28;20063;-59
2023/03/31 11:21:07;;;;;;;82.82;6.00;;;;;;;;;;5017280;28;20762;-56
2023/03/31 11:23:42;;;;;;;94.28;6.30;;;;;;;;;;5017930;28;20040;-59
2023/03/31 11:26:07;;;;;;;83.20;6.03;;;;;;;;;;5016399;28;20053;-59
2023/03/31 11:28:33;;;;;;;59.30;4.73;;;;;;;;;;5018119;28;20053;-59
2023/03/31 11:30:58;;;;;;;66.43;5.40;;;;;;;;;;5020571;28;20697;-58
2023/03/31 11:33:42;;;;;;;99.23;6.83;;;;;;;;;;5020568;28;20060;-58
2023/03/31 11:36:19;;;;;;;80.07;5.65;;;;;;;;;;5020174;28;20271;-59
2023/03/31 11:38:47;;;;;;;74.25;5.82;;;;;;;;;;5021634;28;20030;-58
2023/03/31 11:41:27;;;;;;;64.93;5.20;;;;;;;;;;5020974;28;20033;-59
2023/03/31 11:43:54;;;;;;;80.63;5.72;;;;;;;;;;5020553;28;20044;-57
2023/03/31 11:46:20;;;;;;;67.90;5.30;;;;;;;;;;5020367;28;20045;-58
2023/03/31 11:48:48;;;;;;;82.63;5.43;;;;;;;;;;5021143;28;20032;-60
2023/03/31 11:51:16;;;;;;;67.60;4.93;;;;;;;;;;5020585;28;20037;-58
2023/03/31 11:53:42;;;;;;;89.65;6.07;;;;;;;;;;5019861;28;20036;-58
2023/03/31 11:56:09;;;;;;;72.20;5.15;;;;;;;;;;5019719;28;20037;-58
2023/03/31 11:58:45;;;;;;;64.28;5.18;;;;;;;;;;5020876;28;20211;-60
2023/03/31 12:01:20;;;;;;;78.50;5.63;;;;;;;;;;5020386;28;20041;-58
2023/03/31 12:03:53;;;;;;;76.07;5.63;;;;;;;;;;5020275;28;20502;-59
2023/03/31 12:06:20;;;;;;;85.78;5.63;;;;;;;;;;5019829;28;20041;-58
2023/03/31 12:09:00;;;;;;;74.80;5.63;;;;;;;;;;5021196;28;20022;-59
2023/03/31 12:11:41;;;;;;;70.13;5.28;;;;;;;;;;5035063;28;20049;-59
2023/03/31 12:14:09;;;;;;;122.57;7.90;;;;;;;;;;5018979;28;20534;-59
2023/03/31 12:16:37;;;;;;;71.03;4.90;;;;;;;;;;5019740;28;20041;-58
2023/03/31 12:19:07;;;;;;;77.03;5.35;;;;;;;;;;5021055;28;20136;-57
2023/03/31 12:21:35;;;;;;;79.97;5.75;;;;;;;;;;5019642;28;20029;-59
2023/03/31 12:24:00;;;;;;;106.00;6.35;;;;;;;;;;5017571;28;20033;-59
2023/03/31 12:26:35;;;;;;;90.70;6.03;;;;;;;;;;5018208;28;20044;-59
2023/03/31 12:29:04;;;;;;;73.82;5.07;;;;;;;;;;5020361;28;20041;-59
2023/03/31 12:31:31;;;;;;;90.75;6.05;;;;;;;;;;5018074;28;20053;-59
2023/03/31 12:34:02;;;;;;;105.47;6.90;;;;;;;;;;5019213;28;20993;-59
2023/03/31 12:36:36;;;;;;;52.83;3.78;;;;;;;;;;5019497;28;20043;-59
2023/03/31 12:39:01;;;;;;;71.15;4.75;;;;;;;;;;5019641;28;20108;-59
2023/03/31 12:41:26;;;;;;;65.30;4.50;;;;;;;;;;5019255;28;20136;-57
2023/03/31 12:44:00;;;;;;;98.57;5.73;;;;;;;;;;5019165;28;20021;-59
2023/03/31 12:46:40;;;;;;;70.57;4.65;;;;;;;;;;5018688;28;20111;-59
2023/03/31 12:49:24;;;;;;;68.22;4.60;;;;;;;;;;5019503;28;20967;-59
2023/03/31 12:52:16;;;;;;;66.95;5.18;;;;;;;;;;5018743;28;20096;-59
2023/03/31 12:54:42;;;;;;;;;;;;;;;;;;5018567;28;20025;-60
2023/03/31 12:57:07;;;;;;;94.53;6.00;;;;;;;;;;5018442;28;20355;-59
2023/03/31 12:59:32;;;;;;;65.27;4.53;;;;;;;;;;5019461;28;20068;-59
2023/03/31 13:02:16;;;;;;;71.10;4.73;;;;;;;;;;5018640;28;20037;-58
2023/03/31 13:04:42;;;;;;;86.68;5.32;;;;;;;;;;5017655;28;20030;-60
2023/03/31 13:07:26;;;;;;;73.45;5.03;;;;;;;;;;5017970;28;20040;-57
2023/03/31 13:10:11;;;;;;;76.05;4.55;;;;;;;;;;5018992;28;20278;-59
2023/03/31 13:12:37;;;;;;;78.60;4.93;;;;;;;;;;5006806;28;20044;-59
2023/03/31 13:15:03;;;;;;;76.10;5.03;;;;;;;;;;5017582;28;20499;-59
2023/03/31 13:17:34;;;;;;;83.97;5.47;;;;;;;;;;5018283;28;20098;-57
2023/03/31 13:20:16;;;;;;;75.40;5.35;;;;;;;;;;5018842;28;20044;-60
2023/03/31 13:22:47;;;;;;;91.22;5.55;;;;;;;;;;5018107;28;20060;-58
2023/03/31 13:25:30;;;;;;;73.07;4.78;;;;;;;;;;5017131;28;20327;-58
2023/03/31 13:27:56;;;;;;;82.07;5.75;;;;;;;;;;5018408;28;20110;-58
2023/03/31 13:30:40;;;;;;;77.60;5.63;;;;;;;;;;5017899;28;20026;-58
2023/03/31 13:33:28;;;;;;;86.93;5.38;;;;;;;;;;5033322;28;20022;-58
2023/03/31 13:36:13;;;;;;;81.68;5.50;;;;;;;;;;5006070;28;20059;-58
2023/03/31 13:38:56;;;;;;;83.78;5.45;;;;;;;;;;5018670;28;20014;-58
2023/03/31 13:41:41;;;;;;;62.92;3.95;;;;;;;;;;5018381;28;20068;-59
2023/03/31 13:44:19;;;;;;;137.00;7.75;;;;;;;;;;5017100;28;20632;-57
2023/03/31 13:46:44;;;;;;;82.55;4.97;;;;;;;;;;5018299;28;20041;-59
2023/03/31 13:49:10;;;;;;;88.45;5.03;;;;;;;;;;5018608;28;20018;-59
2023/03/31 13:51:35;;;;;;;95.57;5.43;;;;;;;;;;5017614;28;20084;-58
2023/03/31 13:54:06;;;;;;;104.97;6.47;;;;;;;;;;5016729;28;20410;-58
2023/03/31 13:56:51;;;;;;;84.18;5.22;;;;;;;;;;5017414;28;20033;-59
2023/03/31 13:59:25;;;;;;;71.55;4.28;;;;;;;;;;5017961;28;20034;-59
2023/03/31 14:02:06;;;;;;;63.92;4.35;;;;;;;;;;5017196;28;20041;-58
2023/03/31 14:04:46;;;;;;;107.35;6.38;;;;;;;;;;5016026;28;20043;-58
2023/03/31 14:07:14;;;;;;;84.10;5.15;;;;;;;;;;5016858;28;20424;-58
2023/03/31 14:09:40;;;;;;;102.45;6.15;;;;;;;;;;5016735;28;20130;-58
2023/03/31 14:12:24;;;;;;;81.30;5.20;;;;;;;;;;5016929;28;20041;-58
2023/03/31 14:14:53;;;;;;;96.18;5.65;;;;;;;;;;5016575;28;20087;-59
2023/03/31 14:17:19;;;;;;;75.50;4.90;;;;;;;;;;5017546;28;20045;-58
2023/03/31 14:19:46;;;;;;;61.70;4.00;;;;;;;;;;5017907;28;20343;-58
2023/03/31 14:22:12;;;;;;;61.25;4.20;;;;;;;;;;5017429;28;20338;-58
2023/03/31 14:24:52;;;;;;;74.30;4.70;;;;;;;;;;5016866;28;20235;-58
2023/03/31 14:27:37;;;;;;;70.57;4.70;;;;;;;;;;5016422;28;20038;-57
2023/03/31 14:30:02;;;;;;;91.00;5.40;;;;;;;;;;5018129;28;20518;-59
2023/03/31 14:32:39;;;;;;;62.78;4.05;;;;;;;;;;5017228;28;20037;-58
2023/03/31 14:35:08;;;;;;;86.45;5.45;;;;;;;;;;5013937;28;20112;-58
2023/03/31 14:37:33;;;;;;;76.63;4.63;;;;;;;;;;5017606;28;20034;-58